createdAt,value
2019-02-08T00:00:20.882Z,1.32
2019-02-08T00:02:48.985Z,0.70
2019-02-08T00:05:16.991Z,1.67
2019-02-08T00:07:45.002Z,1.30
2019-02-08T00:10:13.058Z,1.10
2019-02-08T00:12:41.093Z,1.62
2019-02-08T00:15:09.161Z,1.42
2019-02-08T00:17:37.482Z,1.35
2019-02-08T00:20:06.134Z,1.57
2019-02-08T00:22:34.182Z,1.50
2019-02-08T00:25:02.120Z,1.12
2019-02-08T00:27:30.164Z,1.80
2019-02-08T00:29:58.149Z,0.98
2019-02-08T00:32:27.707Z,1.50
2019-02-08T00:34:55.884Z,0.90
2019-02-08T00:37:23.918Z,1.32
2019-02-08T00:39:51.939Z,1.20
2019-02-08T00:42:20.063Z,1.32
2019-02-08T00:44:48.058Z,0.90
2019-02-08T00:47:16.090Z,1.25
2019-02-08T00:49:44.424Z,1.00
2019-02-08T00:52:12.716Z,1.27
2019-02-08T00:54:40.748Z,1.20
2019-02-08T00:57:08.757Z,0.90
2019-02-08T00:59:36.743Z,1.17
2019-02-08T01:02:04.831Z,1.27
2019-02-08T01:04:32.764Z,1.75
2019-02-08T01:07:00.797Z,1.35
2019-02-08T01:09:29.052Z,1.12
2019-02-08T01:11:57.081Z,1.20
2019-02-08T01:14:25.109Z,1.22
2019-02-08T01:16:53.125Z,1.47
2019-02-08T01:19:21.153Z,1.25
2019-02-08T01:21:49.177Z,1.00
2019-02-08T01:24:17.162Z,1.35
2019-02-08T01:26:45.169Z,1.22
2019-02-08T01:29:13.208Z,1.52
2019-02-08T01:31:41.183Z,1.35
2019-02-08T01:34:09.257Z,1.27
2019-02-08T01:36:37.250Z,1.37
2019-02-08T01:39:07.786Z,1.32
2019-02-08T01:41:35.835Z,1.62
2019-02-08T01:44:03.828Z,1.90
2019-02-08T01:46:31.834Z,1.50
2019-02-08T01:48:59.828Z,1.32
2019-02-08T01:51:27.880Z,2.00
2019-02-08T01:53:55.969Z,1.40
2019-02-08T01:56:23.983Z,1.77
2019-02-08T01:58:52.005Z,1.47
2019-02-08T02:01:20.003Z,1.35
2019-02-08T02:03:48.071Z,1.95
2019-02-08T02:06:16.067Z,1.55
2019-02-08T02:08:44.072Z,1.35
2019-02-08T02:11:12.113Z,1.30
2019-02-08T02:13:40.107Z,1.72
2019-02-08T02:16:08.107Z,1.45
2019-02-08T02:18:36.125Z,1.37
2019-02-08T02:21:04.169Z,1.40
2019-02-08T02:23:32.252Z,1.42
2019-02-08T02:26:00.263Z,1.50
2019-02-08T02:28:28.256Z,1.07
2019-02-08T02:30:56.270Z,1.62
2019-02-08T02:33:24.269Z,1.57
2019-02-08T02:35:52.228Z,1.40
2019-02-08T02:38:20.157Z,1.40
2019-02-08T02:40:48.154Z,1.35
2019-02-08T02:43:16.118Z,1.27
2019-02-08T02:45:44.115Z,1.37
2019-02-08T02:48:13.912Z,1.52
2019-02-08T02:50:41.984Z,1.33
2019-02-08T02:53:10.018Z,1.62
2019-02-08T02:55:38.071Z,1.52
2019-02-08T02:58:06.403Z,1.10
2019-02-08T03:00:36.644Z,1.32
2019-02-08T03:03:04.765Z,1.20
2019-02-08T03:05:32.811Z,1.50
2019-02-08T03:08:00.788Z,1.15
2019-02-08T03:13:22.917Z,0.95
2019-02-08T03:15:50.929Z,1.10
2019-02-08T03:18:18.906Z,1.45
2019-02-08T03:20:46.900Z,1.35
2019-02-08T03:23:14.923Z,1.17
2019-02-08T03:25:43.041Z,1.12
2019-02-08T03:28:11.032Z,1.67
2019-02-08T03:30:58.006Z,0.90
2019-02-08T03:33:26.150Z,1.27
2019-02-08T03:35:54.226Z,1.10
2019-02-08T03:38:22.251Z,1.30
2019-02-08T03:40:50.260Z,1.50
2019-02-08T03:43:18.260Z,1.02
2019-02-08T03:45:47.401Z,1.35
2019-02-08T03:48:15.380Z,1.45
2019-02-08T03:50:43.400Z,1.00
2019-02-08T03:53:11.893Z,1.25
2019-02-08T03:55:39.988Z,1.40
2019-02-08T03:58:08.655Z,1.62
2019-02-08T04:00:58.708Z,1.77
2019-02-08T04:03:26.699Z,1.12
2019-02-08T04:05:54.698Z,0.82
2019-02-08T04:08:22.663Z,1.50
2019-02-08T04:10:50.685Z,0.90
2019-02-08T04:13:18.683Z,1.45
2019-02-08T04:15:46.828Z,1.20
2019-02-08T04:18:14.851Z,1.65
2019-02-08T04:20:42.862Z,0.88
2019-02-08T04:23:10.879Z,0.90
2019-02-08T04:25:38.844Z,0.98
2019-02-08T04:28:06.937Z,1.20
2019-02-08T04:30:34.931Z,1.12
2019-02-08T04:33:02.911Z,1.65
2019-02-08T04:35:30.995Z,1.15
2019-02-08T04:37:59.018Z,0.62
2019-02-08T04:40:27.038Z,1.10
2019-02-08T04:42:55.087Z,1.27
2019-02-08T04:45:23.053Z,0.98
2019-02-08T04:47:51.114Z,0.98
2019-02-08T04:50:20.836Z,0.88
2019-02-08T04:52:48.853Z,1.00
2019-02-08T04:55:16.929Z,1.00
2019-02-08T04:57:44.904Z,0.93
2019-02-08T05:00:24.902Z,1.40
2019-02-08T05:02:52.878Z,1.00
2019-02-08T05:05:20.850Z,0.98
2019-02-08T05:07:48.916Z,0.90
2019-02-08T05:10:19.046Z,0.70
2019-02-08T05:12:47.057Z,0.90
2019-02-08T05:15:15.095Z,1.30
2019-02-08T05:17:43.149Z,1.17
2019-02-08T05:20:12.605Z,1.20
2019-02-08T05:22:40.625Z,1.30
2019-02-08T05:25:08.785Z,1.62
2019-02-08T05:27:40.398Z,0.88
2019-02-08T05:30:12.235Z,1.10
2019-02-08T05:32:40.314Z,1.12
2019-02-08T05:35:08.812Z,0.80
2019-02-08T05:37:36.905Z,0.80
2019-02-08T05:40:06.228Z,0.72
2019-02-08T05:42:34.395Z,0.70
2019-02-08T05:45:02.869Z,0.90
2019-02-08T05:47:31.116Z,0.80
2019-02-08T05:49:59.094Z,0.90
2019-02-08T05:52:27.100Z,1.02
2019-02-08T05:54:55.148Z,0.88
2019-02-08T05:57:24.530Z,1.00
2019-02-08T05:59:52.452Z,0.80
2019-02-08T06:02:20.508Z,0.85
2019-02-08T06:04:48.502Z,0.78
2019-02-08T06:07:16.512Z,0.68
2019-02-08T06:09:44.588Z,0.95
2019-02-08T06:12:12.640Z,0.90
2019-02-08T06:14:40.682Z,1.07
2019-02-08T06:17:08.723Z,1.30
2019-02-08T06:19:36.738Z,0.98
2019-02-08T06:22:04.742Z,1.05
2019-02-08T06:24:32.782Z,0.88
2019-02-08T06:27:00.807Z,1.10
2019-02-08T06:29:28.821Z,0.80
2019-02-08T06:31:56.823Z,1.07
2019-02-08T06:34:24.861Z,0.85
2019-02-08T06:36:52.889Z,1.67
2019-02-08T06:39:20.891Z,1.52
2019-02-08T06:41:48.891Z,0.90
2019-02-08T06:44:16.897Z,1.52
2019-02-08T06:46:44.930Z,1.22
2019-02-08T06:49:12.938Z,0.90
2019-02-08T06:51:40.943Z,1.07
2019-02-08T06:54:09.043Z,1.55
2019-02-08T06:57:08.279Z,1.10
2019-02-08T06:59:45.422Z,1.25
2019-02-08T07:02:32.430Z,1.02
2019-02-08T07:05:22.403Z,1.05
2019-02-08T07:08:27.744Z,0.82
2019-02-08T07:11:10.230Z,0.85
2019-02-08T07:13:57.232Z,1.52
2019-02-08T07:16:42.254Z,2.05
2019-02-08T07:19:27.708Z,0.80
2019-02-08T07:22:14.648Z,1.55
2019-02-08T07:24:51.384Z,1.92
2019-02-08T07:27:37.263Z,1.40
2019-02-08T07:30:16.006Z,0.70
2019-02-08T07:33:17.851Z,1.50
2019-02-08T07:35:54.131Z,0.75
2019-02-08T07:38:53.130Z,0.78
2019-02-08T07:41:40.861Z,0.90
2019-02-08T07:44:19.051Z,1.25
2019-02-08T07:47:06.116Z,1.47
2019-02-08T07:49:41.616Z,0.85
2019-02-08T07:52:34.772Z,1.15
2019-02-08T07:55:14.106Z,0.75
2019-02-08T07:57:56.440Z,0.80
2019-02-08T08:01:01.997Z,0.80
2019-02-08T08:03:42.141Z,0.90
2019-02-08T08:06:37.990Z,1.02
2019-02-08T08:09:34.623Z,0.93
2019-02-08T08:12:20.260Z,0.85
2019-02-08T08:15:01.673Z,0.57
2019-02-08T08:17:48.634Z,0.98
2019-02-08T08:23:32.948Z,1.00
2019-02-08T08:26:30.669Z,0.80
2019-02-08T08:29:04.718Z,1.05
2019-02-08T08:31:53.216Z,1.45
2019-02-08T08:34:58.004Z,1.10
2019-02-08T08:38:13.590Z,1.15
2019-02-08T08:41:12.951Z,1.40
2019-02-08T08:44:25.465Z,1.40
2019-02-08T08:47:32.854Z,1.15
2019-02-08T08:50:30.402Z,0.82
2019-02-08T08:53:41.301Z,1.50
2019-02-08T08:59:34.211Z,1.10
2019-02-08T09:02:42.350Z,1.00
2019-02-08T09:05:41.151Z,1.45
2019-02-08T09:08:58.061Z,1.42
2019-02-08T09:11:52.798Z,1.20
2019-02-08T09:14:55.440Z,1.52
2019-02-08T09:18:02.534Z,1.20
2019-02-08T09:20:55.191Z,1.40
2019-02-08T09:24:22.443Z,1.22
2019-02-08T09:27:30.652Z,1.12
2019-02-08T09:30:41.067Z,1.57
2019-02-08T09:33:33.870Z,1.37
2019-02-08T09:36:38.676Z,1.00
2019-02-08T09:39:32.062Z,1.45
2019-02-08T09:42:33.984Z,1.35
2019-02-08T09:45:40.783Z,2.02
2019-02-08T09:48:58.297Z,1.70
2019-02-08T09:52:07.088Z,2.33
2019-02-08T09:55:31.197Z,2.00
2019-02-08T09:58:32.515Z,1.55
2019-02-08T10:01:36.109Z,1.02
2019-02-08T10:07:32.853Z,1.45
2019-02-08T10:10:34.765Z,1.32
2019-02-08T10:13:24.013Z,1.45
2019-02-08T10:16:34.203Z,1.55
2019-02-08T10:19:40.567Z,1.32
2019-02-08T10:22:52.863Z,1.07
2019-02-08T10:26:07.672Z,1.17
2019-02-08T10:29:11.528Z,1.92
2019-02-08T10:32:15.149Z,4.00
2019-02-08T10:35:29.980Z,3.92
2019-02-08T10:38:33.556Z,4.53
2019-02-08T10:41:38.462Z,4.62
2019-02-08T10:44:31.130Z,3.52
2019-02-08T10:47:35.684Z,4.05
2019-02-08T10:50:40.849Z,1.87
2019-02-08T10:53:22.901Z,1.95
2019-02-08T10:56:33.240Z,1.80
2019-02-08T10:59:39.505Z,1.52
2019-02-08T11:02:59.481Z,1.65
2019-02-08T11:06:10.547Z,1.70
2019-02-08T11:09:27.647Z,1.57
2019-02-08T11:12:26.203Z,1.80
2019-02-08T11:15:31.367Z,1.22
2019-02-08T11:18:38.296Z,1.20
2019-02-08T11:21:06.360Z,1.25
2019-02-08T11:23:34.407Z,1.42
2019-02-08T11:26:02.500Z,1.85
2019-02-08T11:28:30.510Z,2.67
2019-02-08T11:30:58.614Z,2.42
2019-02-08T11:33:26.662Z,2.02
2019-02-08T11:35:54.755Z,2.45
2019-02-08T11:38:22.748Z,2.40
2019-02-08T11:40:51.832Z,2.22
2019-02-08T11:43:19.912Z,1.20
2019-02-08T11:45:47.964Z,1.32
2019-02-08T11:48:16.070Z,1.35
2019-02-08T11:50:44.179Z,1.67
2019-02-08T11:53:12.160Z,1.57
2019-02-08T11:55:40.202Z,1.30
2019-02-08T11:58:08.205Z,2.17
2019-02-08T12:00:43.230Z,1.98
2019-02-08T12:03:11.310Z,1.50
2019-02-08T12:05:39.301Z,1.60
2019-02-08T12:08:07.392Z,1.47
2019-02-08T12:10:35.437Z,1.30
2019-02-08T12:13:03.536Z,1.67
2019-02-08T12:15:31.686Z,2.00
2019-02-08T12:17:59.869Z,1.72
2019-02-08T12:20:27.929Z,1.60
2019-02-08T12:22:56.021Z,1.80
2019-02-08T12:25:24.023Z,1.70
2019-02-08T12:27:52.101Z,1.40
2019-02-08T12:30:23.795Z,0.80
2019-02-08T12:32:51.793Z,1.37
2019-02-08T12:35:19.835Z,1.27
2019-02-08T12:37:47.950Z,1.40
2019-02-08T12:40:15.985Z,1.30
2019-02-08T12:42:44.057Z,1.10
2019-02-08T12:45:12.199Z,1.10
2019-02-08T12:47:40.277Z,1.00
2019-02-08T12:50:08.585Z,1.32
2019-02-08T12:52:36.637Z,1.25
2019-02-08T12:55:05.298Z,1.17
2019-02-08T12:57:33.336Z,1.40
2019-02-08T13:00:02.252Z,1.42
2019-02-08T13:02:30.328Z,2.00
2019-02-08T13:04:58.682Z,1.35
2019-02-08T13:07:26.734Z,1.42
2019-02-08T13:09:55.204Z,1.57
2019-02-08T13:12:25.448Z,1.82
2019-02-08T13:14:53.221Z,1.12
2019-02-08T13:17:21.815Z,0.80
2019-02-08T13:19:50.201Z,1.47
2019-02-08T13:22:18.709Z,2.05
2019-02-08T13:24:46.973Z,1.75
2019-02-08T13:27:15.027Z,1.50
2019-02-08T13:29:43.191Z,2.08
2019-02-08T13:32:11.325Z,2.02
2019-02-08T13:34:39.707Z,1.20
2019-02-08T13:37:07.856Z,1.50
2019-02-08T13:39:36.509Z,2.35
2019-02-08T13:42:06.093Z,2.37
2019-02-08T13:44:34.573Z,1.55
2019-02-08T13:47:02.829Z,3.20
2019-02-08T13:49:31.227Z,3.22
2019-02-08T13:51:59.881Z,1.90
2019-02-08T13:54:28.757Z,2.58
2019-02-08T13:57:00.706Z,2.00
2019-02-08T13:59:45.878Z,2.10
2019-02-08T14:02:14.344Z,2.10
2019-02-08T14:04:42.781Z,1.20
2019-02-08T14:07:11.236Z,1.07
2019-02-08T14:09:39.719Z,1.65
2019-02-08T14:12:08.086Z,1.25
2019-02-08T14:14:36.407Z,1.75
2019-02-08T14:17:05.074Z,2.27
2019-02-08T14:19:33.135Z,2.87
2019-02-08T14:22:01.256Z,2.95
2019-02-08T14:24:29.380Z,2.22
2019-02-08T14:26:57.518Z,2.40
2019-02-08T14:29:25.635Z,1.55
2019-02-08T14:31:53.804Z,1.80
2019-02-08T14:34:21.878Z,1.50
2019-02-08T14:36:49.969Z,1.95
2019-02-08T14:39:18.174Z,2.00
2019-02-08T14:41:46.209Z,1.55
2019-02-08T14:44:14.361Z,2.00
2019-02-08T14:46:42.610Z,2.40
2019-02-08T14:49:10.849Z,1.87
2019-02-08T14:51:38.967Z,2.62
2019-02-08T14:54:07.810Z,2.27
2019-02-08T14:56:35.900Z,2.10
2019-02-08T14:59:03.975Z,1.90
2019-02-08T15:01:32.061Z,1.82
2019-02-08T15:04:00.325Z,1.95
2019-02-08T15:06:28.620Z,2.35
2019-02-08T15:08:56.692Z,1.72
2019-02-08T15:11:24.765Z,1.77
2019-02-08T15:13:52.842Z,1.90
2019-02-08T15:16:20.908Z,2.15
2019-02-08T15:18:49.039Z,1.15
2019-02-08T15:21:17.164Z,1.95
2019-02-08T15:23:45.229Z,1.85
2019-02-08T15:26:13.335Z,2.30
2019-02-08T15:28:41.414Z,2.67
2019-02-08T15:31:09.454Z,3.00
2019-02-08T15:33:37.517Z,2.02
2019-02-08T15:36:05.583Z,2.77
2019-02-08T15:38:33.690Z,3.15
2019-02-08T15:41:01.713Z,1.62
2019-02-08T15:43:29.764Z,1.32
2019-02-08T15:46:03.245Z,1.55
2019-02-08T15:48:31.402Z,2.05
2019-02-08T15:51:01.073Z,1.80
2019-02-08T15:53:29.263Z,1.65
2019-02-08T15:56:09.497Z,1.40
2019-02-08T15:58:37.715Z,5.95
2019-02-08T16:01:08.580Z,1.92
2019-02-08T16:03:37.097Z,0.98
2019-02-08T16:06:05.415Z,1.22
2019-02-08T16:08:33.585Z,1.10
2019-02-08T16:11:01.842Z,0.55
2019-02-08T16:13:29.994Z,1.65
2019-02-08T16:15:58.111Z,1.00
2019-02-08T16:18:26.496Z,1.27
2019-02-08T16:20:54.786Z,1.50
2019-02-08T16:23:23.222Z,0.75
2019-02-08T16:25:51.434Z,1.37
2019-02-08T16:28:19.544Z,1.40
2019-02-08T16:30:47.613Z,1.45
2019-02-08T16:33:15.658Z,1.30
2019-02-08T16:35:44.748Z,1.27
2019-02-08T16:38:12.855Z,0.85
2019-02-08T16:40:41.066Z,1.42
2019-02-08T16:43:09.269Z,1.37
2019-02-08T16:45:37.410Z,2.83
2019-02-08T16:48:07.585Z,1.00
2019-02-08T16:50:35.718Z,1.45
2019-02-08T16:53:03.775Z,0.95
2019-02-08T16:55:31.810Z,0.80
2019-02-08T16:57:59.869Z,1.67
2019-02-08T17:00:47.191Z,0.98
2019-02-08T17:03:15.488Z,1.50
2019-02-08T17:05:44.138Z,1.27
2019-02-08T17:08:12.179Z,1.20
2019-02-08T17:10:40.299Z,1.57
2019-02-08T17:13:08.575Z,1.40
2019-02-08T17:15:36.632Z,1.40
2019-02-08T17:18:04.680Z,0.98
2019-02-08T17:20:38.234Z,1.65
2019-02-08T17:23:06.377Z,1.32
2019-02-08T17:25:34.661Z,1.65
2019-02-08T17:28:03.000Z,3.02
2019-02-08T17:30:31.115Z,2.25
2019-02-08T17:32:59.372Z,2.17
2019-02-08T17:35:27.529Z,3.52
2019-02-08T17:37:55.578Z,2.50
2019-02-08T17:40:25.990Z,1.85
2019-02-08T17:42:54.074Z,1.98
2019-02-08T17:45:22.314Z,1.40
2019-02-08T17:47:53.118Z,2.05
2019-02-08T17:50:23.415Z,1.72
2019-02-08T17:52:51.767Z,1.50
2019-02-08T17:55:21.519Z,1.17
2019-02-08T17:57:50.419Z,1.47
2019-02-08T18:00:22.425Z,1.02
2019-02-08T18:02:50.533Z,0.95
2019-02-08T18:05:19.305Z,0.90
2019-02-08T18:07:47.923Z,1.42
2019-02-08T18:10:19.334Z,1.98
2019-02-08T18:12:48.310Z,1.27
2019-02-08T18:15:19.091Z,1.12
2019-02-08T18:17:47.514Z,1.52
2019-02-08T18:20:22.571Z,1.52
2019-02-08T18:22:50.593Z,1.72
2019-02-08T18:25:18.834Z,4.45
2019-02-08T18:27:47.175Z,1.17
2019-02-08T18:30:16.473Z,0.93
2019-02-08T18:32:44.505Z,0.85
2019-02-08T18:35:12.902Z,1.07
2019-02-08T18:37:41.106Z,1.17
2019-02-08T18:40:11.124Z,1.50
2019-02-08T18:42:39.424Z,0.98
2019-02-08T18:45:08.730Z,1.12
2019-02-08T18:47:37.101Z,1.65
2019-02-08T18:50:07.204Z,0.88
2019-02-08T18:52:35.729Z,1.22
2019-02-08T18:55:03.886Z,0.85
2019-02-08T18:57:32.029Z,1.22
2019-02-08T19:00:00.376Z,1.35
2019-02-08T19:02:28.960Z,0.90
2019-02-08T19:04:57.146Z,1.30
2019-02-08T19:07:27.026Z,1.12
2019-02-08T19:09:55.577Z,0.65
2019-02-08T19:12:25.096Z,1.30
2019-02-08T19:14:54.524Z,0.95
2019-02-08T19:17:23.331Z,1.00
2019-02-08T19:19:52.276Z,0.90
2019-02-08T19:22:21.233Z,0.98
2019-02-08T19:24:49.867Z,1.05
2019-02-08T19:27:19.026Z,1.17
2019-02-08T19:29:47.939Z,1.22
2019-02-08T19:32:17.069Z,1.00
2019-02-08T19:34:45.879Z,1.10
2019-02-08T19:37:15.187Z,1.10
2019-02-08T19:39:44.753Z,1.70
2019-02-08T19:42:13.911Z,1.22
2019-02-08T19:44:47.155Z,0.33
2019-02-08T19:47:17.048Z,1.05
2019-02-08T19:49:46.127Z,1.05
2019-02-08T19:52:16.415Z,1.30
2019-02-08T19:54:45.777Z,1.15
2019-02-08T19:57:15.237Z,0.37
2019-02-08T19:59:44.954Z,0.57
2019-02-08T20:02:14.573Z,0.57
2019-02-08T20:04:43.771Z,0.72
2019-02-08T20:07:13.425Z,1.15
2019-02-08T20:09:45.283Z,1.00
2019-02-08T20:12:14.612Z,0.90
2019-02-08T20:14:44.505Z,0.72
2019-02-08T20:17:14.316Z,0.68
2019-02-08T20:19:44.033Z,1.07
2019-02-08T20:22:14.470Z,0.70
2019-02-08T20:24:43.212Z,0.90
2019-02-08T20:27:12.616Z,0.93
2019-02-08T20:29:42.057Z,1.00
2019-02-08T20:32:11.963Z,0.98
2019-02-08T20:34:41.825Z,1.00
2019-02-08T20:37:11.888Z,0.93
2019-02-08T20:39:41.275Z,0.53
2019-02-08T20:42:10.402Z,0.90
2019-02-08T20:44:40.390Z,1.00
2019-02-08T20:47:09.659Z,0.78
2019-02-08T20:49:39.242Z,1.15
2019-02-08T20:52:08.646Z,0.62
2019-02-08T20:54:38.280Z,0.85
2019-02-08T20:57:07.631Z,1.02
2019-02-08T21:02:25.100Z,0.62
2019-02-08T21:04:54.638Z,0.88
2019-02-08T21:07:23.304Z,1.05
2019-02-08T21:09:52.223Z,1.15
2019-02-08T21:12:20.970Z,0.93
2019-02-08T21:14:50.273Z,0.70
2019-02-08T21:17:19.219Z,0.93
2019-02-08T21:19:48.175Z,1.17
2019-02-08T21:22:16.946Z,0.65
2019-02-08T21:24:46.364Z,0.13
2019-02-08T21:27:15.289Z,0.78
2019-02-08T21:29:43.967Z,1.22
2019-02-08T21:32:13.623Z,0.82
2019-02-08T21:34:42.915Z,0.73
2019-02-08T21:37:11.651Z,0.93
2019-02-08T21:39:40.159Z,0.90
2019-02-08T21:42:08.843Z,1.10
2019-02-08T21:44:37.244Z,0.90
2019-02-08T21:47:05.753Z,0.80
2019-02-08T21:49:34.169Z,1.00
2019-02-08T21:52:02.696Z,0.82
2019-02-08T21:54:32.140Z,1.20
2019-02-08T21:57:00.454Z,0.68
2019-02-08T21:59:28.619Z,1.20
2019-02-08T22:01:57.770Z,0.95
2019-02-08T22:04:25.976Z,0.72
2019-02-08T22:06:54.426Z,1.05
2019-02-08T22:09:22.498Z,0.68
2019-02-08T22:11:50.956Z,0.80
2019-02-08T22:14:20.196Z,0.60
2019-02-08T22:16:48.612Z,0.40
2019-02-08T22:19:16.962Z,1.20
2019-02-08T22:21:45.354Z,0.93
2019-02-08T22:24:13.654Z,0.82
2019-02-08T22:26:42.546Z,0.70
2019-02-08T22:29:14.153Z,0.93
2019-02-08T22:31:40.502Z,0.68
2019-02-08T22:34:08.655Z,1.22
2019-02-08T22:36:36.936Z,0.68
2019-02-08T22:39:08.114Z,0.93
2019-02-08T22:41:36.889Z,0.90
2019-02-08T22:44:05.175Z,0.95
2019-02-08T22:46:33.595Z,1.30
2019-02-08T22:49:01.705Z,1.22
2019-02-08T22:51:29.865Z,0.80
2019-02-08T22:53:58.080Z,0.90
2019-02-08T22:56:26.169Z,0.78
2019-02-08T22:58:54.282Z,0.93
2019-02-08T23:01:34.232Z,1.10
2019-02-08T23:04:03.400Z,2.05
2019-02-08T23:06:31.686Z,1.10
2019-02-08T23:08:59.975Z,1.00
2019-02-08T23:11:28.220Z,1.30
2019-02-08T23:13:56.356Z,1.00
2019-02-08T23:16:24.658Z,0.62
2019-02-08T23:18:52.650Z,1.40
2019-02-08T23:21:20.686Z,1.05
2019-02-08T23:23:48.707Z,0.60
2019-02-08T23:26:16.733Z,1.07
2019-02-08T23:28:44.771Z,1.00
2019-02-08T23:31:12.890Z,0.70
2019-02-08T23:33:40.967Z,0.68
2019-02-08T23:36:08.990Z,0.62
2019-02-08T23:38:36.979Z,0.70
2019-02-08T23:41:05.042Z,1.00
2019-02-08T23:43:33.301Z,0.68
2019-02-08T23:46:01.390Z,1.45
2019-02-08T23:48:29.389Z,0.85
2019-02-08T23:50:57.398Z,0.85
2019-02-08T23:53:25.654Z,0.88
2019-02-08T23:55:54.024Z,0.85
2019-02-08T23:58:22.332Z,0.82
